TR-0040 weather

Manavgat Airport
Manavgat, Antalya Province, Turkey

Public forecast

Using degrees Celsius for public forecast. Weather courtesy of forecast.io.

METAR (pilot weather report)

Closest report is Antalya International Airport, 35.4 nm (65.6 km) WNW. Retrieved 2019/06/17 09:20 UTC (38 minutes ago):

LTAI 170920Z 20011KT 9999 FEW030 27/18 Q1008 NOSIG RMK RWY18C 17010KT 140V200 RWY36R 20010KT 160V230 RWY18L 19009KT 150V210

TAF (pilot weather forecast)

Closest forecast is Antalya International Airport, 35.4 nm (65.6 km) WNW. Retrieved 2019/06/17 06:03 UTC (4 hours ago):

TAF LTAI 170440Z 1706/1806 34006KT CAVOK BECMG 1706/1709 18012KT SCT030 TEMPO 1712/1716 -SHRA FEW020CB BKN030 BECMG 1715/1719 34006KT